No Warnings, Watches, or Advisories

Active alerts


No alerts

Amazon Weather

Hours of Daylight

9 hrs 52 min 37 sec
of Daylight Today
41.1% Day 58.9% Night Which is
1 min 59 sec Longer
Than Yesterday

South Webcam more information South Webcam


NorthWest Webcam more information NorthWest Webcam


You find our weather info also at:

UK Metoffice

Weather Underground

Mid-Atlantic Weather Network

WeatherlinkIP

Citizen Weather Observer Program (CWOP)

HAMweather, WeatherForYou, PWS Weather



Nearby METAR Reports

   
KDUJ - Du Bois, Pennsylvania, USA
Distance from station: NNE 16 mi
Updated: Jan 25 2020 6:07 pm
Overcast  
Overcast  
   Wind: WSW 8.1 mph
Wind: WSW 8.1 mph
Temperature: 35.6°F
Wind Chill: 28.4°F
Dew Point: 32°F
Humidity: 87%
Barometer: 29.81 inHg
Clouds: Overcast
Visibility: 10 mi
Cloud details: Mostly Cloudy 700 ft,
Overcast 1200 ft
KDUJ 252307Z AUTO 24007KT 10SM BKN007 OVC012 02/00 A2981 RMK AO2 CIG 005V009 T00170000
KIDI - Indiana/Stewart, Pennsylvania, USA
Distance from station: SSW 23 mi
Updated: Jan 25 2020 5:55 pm
Overcast  
Overcast  
   Wind: West 8.1 mph<br />Gust to 8.1 mph
Wind: West 8.1 mph
Gust to 8.1 mph
Temperature: 37.4°F
Wind Chill: 30.2°F
Dew Point: 35.6°F
Humidity: 93%
Barometer: 29.88 inHg
Clouds: Overcast
Visibility: 10 mi
Cloud details: Mostly Cloudy 1200 ft,
Mostly Cloudy 2000 ft,
Overcast 6000 ft
KIDI 252255Z AUTO 26007G12KT 10SM BKN012 BKN020 OVC060 03/02 A2988 RMK A01
KFIG - Clearfield, Pennsylvania, USA
Distance from station: ENE 31 mi
Updated: Jan 25 2020 5:54 pm
Overcast  
Overcast  
   Wind: WSW 6.9 mph
Wind: WSW 6.9 mph
Temperature: 37.4°F
Wind Chill: 32°F
Dew Point: 33.8°F
Humidity: 87%
Barometer: 29.82 inHg
Clouds: Overcast
Visibility: 10 mi
Cloud details: Partly Cloudy 1600 ft,
Overcast 6000 ft
KFIG 252254Z AUTO 24006KT 10SM SCT016 OVC060 03/01 A2982 RMK AO2 RAE08 SLP110 P0000 T00280006
KJST - Johnstown, Pennsylvania, USA
Distance from station: S 44 mi
Updated: Jan 25 2020 6:04 pm
Overcast  
Overcast  
   Wind: West 11.5 mph
Wind: West 11.5 mph
Temperature: 33.8°F
Wind Chill: 24.8°F
Dew Point: 30.2°F
Humidity: 87%
Barometer: 29.81 inHg
Clouds: Overcast
Visibility: 9 mi
Cloud details: Partly Cloudy 900 ft,
Mostly Cloudy 1500 ft,
Overcast 4400 ft
KJST 252304Z AUTO 26010KT 9SM SCT009 BKN015 OVC044 01/M01 A2981 RMK AO2 SNE04 P0000 T00111011
KPIT - Pittsburgh, Pennsylvania, USA
Distance from station: WSW 74 mi
Updated: Jan 25 2020 5:51 pm
Light Rain, Overcast  
Light Rain, Overcast  
   Wind: West 6.9 mph
Wind: West 6.9 mph
Temperature: 35.6°F
Wind Chill: 30.2°F
Dew Point: 33.8°F
Humidity: 93%
Barometer: 29.87 inHg
Clouds: Overcast
Visibility: 9 mi
Cloud details: Partly Cloudy 1000 ft,
Mostly Cloudy 1500 ft,
Overcast 4500 ft
KPIT 252251Z 26006KT 9SM -RA SCT010 BKN015 OVC045 02/01 A2987 RMK AO2 RAB23 SLP129 P0001 T00220011
KLBE - Latrobe/Westmorl, Pennsylvania, USA
Distance from station: SSW 52 mi
Updated: Jan 25 2020 5:51 pm
Overcast  
Overcast  
   Wind: SSW 11.5 mph
Wind: SSW 11.5 mph
Temperature: 37.4°F
Wind Chill: 30.2°F
Dew Point: 35.6°F
Humidity: 93%
Barometer: 29.88 inHg
Clouds: Overcast
Visibility: 10 mi
Cloud details: Few Clouds 2000 ft,
Overcast 6000 ft
KLBE 252251Z 21010KT 10SM FEW020 OVC060 03/02 A2988
KBTP - Butler Co., Pennsylvania, USA
Distance from station: WSW 52 mi
Updated: Jan 25 2020 5:56 pm
Overcast  
Overcast  
   Wind: SSW 4.6 mph
Wind: SSW 4.6 mph
Temperature: 35.6°F
Wind Chill: 32°F
Dew Point: 33.8°F
Humidity: 93%
Barometer: 29.86 inHg
Clouds: Overcast
Visibility: 10 mi
Cloud details: Mostly Cloudy 3300 ft,
Overcast 7000 ft
KBTP 252256Z AUTO 21004KT 10SM BKN033 OVC070 02/01 A2986 RMK AO2 RAE07UPB11E22 SLP126 P0000 T00170011 FZRANO
KUCP - New Castle Muni, Pennsylvania, USA
Distance from station: W 75 mi
Updated: Jan 25 2020 6:12 pm
Overcast  
Overcast  
   Wind: Calm
Wind: Calm
Temperature: 35.6°F
Dew Point: 33.8°F
Humidity: 93%
Barometer: 29.86 inHg
Clouds: Overcast
Visibility: 10 mi
Cloud details: Few Clouds 1800 ft,
Mostly Cloudy 7000 ft,
Overcast 8500 ft
KUCP 252312Z AUTO 00000KT 10SM FEW018 BKN070 OVC085 02/01 A2986 RMK AO2 PNO $
KFKL - Franklin, Pennsylvania, USA
Distance from station: WNW 54 mi
Updated: Jan 25 2020 6:11 pm
Overcast  
Overcast  
   Wind: SSW 5.8 mph
Wind: SSW 5.8 mph
Temperature: 35.6°F
Wind Chill: 30.2°F
Dew Point: 33.8°F
Humidity: 93%
Barometer: 29.83 inHg
Clouds: Overcast
Visibility: 10 mi
Cloud details: Partly Cloudy 2100 ft,
Mostly Cloudy 2700 ft,
Overcast 3200 ft
KFKL 252311Z AUTO 21005KT 10SM SCT021 BKN027 OVC032 02/01 A2983 RMK AO2 FZRANO
KAOO - Altoona, Pennsylvania, USA
Distance from station: SE 57 mi
Updated: Jan 25 2020 5:53 pm
Mostly Cloudy  
Mostly Cloudy  
   Wind: West 9.2 mph
Wind: West 9.2 mph
Temperature: 37.4°F
Wind Chill: 30.2°F
Dew Point: 30.2°F
Humidity: 75%
Barometer: 29.84 inHg
Clouds: Mostly Cloudy
Visibility: 10 mi
Cloud details: Few Clouds 2200 ft,
Partly Cloudy 2700 ft,
Mostly Cloudy 5000 ft
KAOO 252253Z AUTO 27008KT 10SM FEW022 SCT027 BKN050 03/M01 A2984 RMK AO2 SLP116 T00331006
KUNV - State College, Pennsylvania, USA
Distance from station: E 61 mi
Updated: Jan 25 2020 5:53 pm
Mostly Cloudy  
Mostly Cloudy  
   Wind: WSW 6.9 mph
Wind: WSW 6.9 mph
Temperature: 37.4°F
Wind Chill: 32°F
Dew Point: 35.6°F
Humidity: 93%
Barometer: 29.82 inHg
Clouds: Mostly Cloudy
Visibility: 10 mi
Cloud details: Mostly Cloudy 2900 ft
KUNV 252253Z 25006KT 10SM BKN029 03/02 A2982
KBFD - Bradford, Pennsylvania, USA
Distance from station: NNE 62 mi
Updated: Jan 25 2020 5:53 pm
Overcast  
Overcast  
   Wind: West 4.6 mph
Wind: West 4.6 mph
Temperature: 35.6°F
Wind Chill: 32°F
Dew Point: 32°F
Humidity: 87%
Barometer: 29.78 inHg
Clouds: Overcast
Visibility: 10 mi
Cloud details: Mostly Cloudy 700 ft,
Overcast 1300 ft
KBFD 252253Z AUTO 26004KT 10SM BKN007 OVC013 02/00 A2978 RMK AO2 RAE36 SLP101 P0001 T00170000

Script developed by  Saratoga-weather.org Adapted for the template by  Weerstation Leuven

Equipment we use:

Weather-station
Davis VP2

Weather-program
Cumulus

Weather-server
Dell Inspiron 3521

Provider
Host On A Rope

Davis VP2

Cumulus

Dell Inspiron 3521

Host On A Rope